sensor_id;sensor_type;location;lat;lon;timestamp;pressure;altitude;pressure_sealevel;temperature;humidity
55301;BME280;58302;51.446;-2.000;2023-03-21T00:00:32;100098.72;;;8.68;100.00
55301;BME280;58302;51.446;-2.000;2023-03-21T00:02:58;100097.66;;;8.69;100.00
55301;BME280;58302;51.446;-2.000;2023-03-21T00:05:24;100088.97;;;8.67;100.00
55301;BME280;58302;51.446;-2.000;2023-03-21T00:07:50;100077.84;;;8.63;100.00
55301;BME280;58302;51.446;-2.000;2023-03-21T00:10:16;100068.06;;;8.57;100.00
55301;BME280;58302;51.446;-2.000;2023-03-21T00:12:42;100069.66;;;8.53;100.00
55301;BME280;58302;51.446;-2.000;2023-03-21T00:15:10;100058.53;;;8.50;100.00
55301;BME280;58302;51.446;-2.000;2023-03-21T00:17:37;100058.50;;;8.44;100.00
55301;BME280;58302;51.446;-2.000;2023-03-21T00:20:05;100054.44;;;8.42;100.00
55301;BME280;58302;51.446;-2.000;2023-03-21T00:22:34;100045.50;;;8.41;100.00
55301;BME280;58302;51.446;-2.000;2023-03-21T00:25:00;100040.31;;;8.40;100.00
55301;BME280;58302;51.446;-2.000;2023-03-21T00:27:26;100039.25;;;8.41;100.00
55301;BME280;58302;51.446;-2.000;2023-03-21T00:29:52;100043.03;;;8.40;100.00
55301;BME280;58302;51.446;-2.000;2023-03-21T00:32:19;100033.31;;;8.44;100.00
55301;BME280;58302;51.446;-2.000;2023-03-21T00:34:46;100026.56;;;8.47;100.00
55301;BME280;58302;51.446;-2.000;2023-03-21T00:44:38;100050.69;;;8.48;100.00
55301;BME280;58302;51.446;-2.000;2023-03-21T00:47:05;100045.81;;;8.50;100.00
55301;BME280;58302;51.446;-2.000;2023-03-21T00:49:32;100053.97;;;8.55;100.00
55301;BME280;58302;51.446;-2.000;2023-03-21T00:52:07;100037.44;;;8.52;100.00
55301;BME280;58302;51.446;-2.000;2023-03-21T00:54:35;100031.19;;;8.51;100.00
55301;BME280;58302;51.446;-2.000;2023-03-21T00:57:02;100027.41;;;8.52;100.00
55301;BME280;58302;51.446;-2.000;2023-03-21T00:59:29;100028.78;;;8.55;100.00
55301;BME280;58302;51.446;-2.000;2023-03-21T01:01:55;100035.53;;;8.52;100.00
55301;BME280;58302;51.446;-2.000;2023-03-21T01:04:21;100023.63;;;8.53;100.00
55301;BME280;58302;51.446;-2.000;2023-03-21T01:06:53;100015.78;;;8.52;100.00
55301;BME280;58302;51.446;-2.000;2023-03-21T01:09:21;100012.22;;;8.51;100.00
55301;BME280;58302;51.446;-2.000;2023-03-21T01:11:48;100011.16;;;8.52;100.00
55301;BME280;58302;51.446;-2.000;2023-03-21T01:14:17;100007.66;;;8.52;100.00
55301;BME280;58302;51.446;-2.000;2023-03-21T01:16:43;100006.28;;;8.54;100.00
55301;BME280;58302;51.446;-2.000;2023-03-21T01:19:12;100003.84;;;8.53;100.00
55301;BME280;58302;51.446;-2.000;2023-03-21T01:21:39;100010.09;;;8.53;100.00
55301;BME280;58302;51.446;-2.000;2023-03-21T01:24:05;99995.97;;;8.46;100.00
55301;BME280;58302;51.446;-2.000;2023-03-21T01:26:32;100000.81;;;8.44;100.00
55301;BME280;58302;51.446;-2.000;2023-03-21T01:28:57;99998.38;;;8.42;100.00
55301;BME280;58302;51.446;-2.000;2023-03-21T01:31:23;100002.97;;;8.42;100.00
55301;BME280;58302;51.446;-2.000;2023-03-21T01:33:49;99997.00;;;8.40;100.00
55301;BME280;58302;51.446;-2.000;2023-03-21T01:36:22;99989.88;;;8.34;100.00
55301;BME280;58302;51.446;-2.000;2023-03-21T01:38:48;99985.53;;;8.28;100.00
55301;BME280;58302;51.446;-2.000;2023-03-21T01:41:20;99983.91;;;8.27;100.00
55301;BME280;58302;51.446;-2.000;2023-03-21T01:43:47;99979.56;;;8.26;100.00
55301;BME280;58302;51.446;-2.000;2023-03-21T01:46:46;99982.25;;;8.21;100.00
55301;BME280;58302;51.446;-2.000;2023-03-21T01:49:24;99974.63;;;8.17;100.00
55301;BME280;58302;51.446;-2.000;2023-03-21T01:51:54;99963.25;;;8.15;100.00
55301;BME280;58302;51.446;-2.000;2023-03-21T01:54:26;99946.72;;;8.12;100.00
55301;BME280;58302;51.446;-2.000;2023-03-21T01:56:55;99951.88;;;8.13;100.00
55301;BME280;58302;51.446;-2.000;2023-03-21T01:59:34;99950.50;;;8.11;100.00
55301;BME280;58302;51.446;-2.000;2023-03-21T02:02:04;99948.06;;;8.09;100.00
55301;BME280;58302;51.446;-2.000;2023-03-21T02:04:36;99931.81;;;8.09;100.00
55301;BME280;58302;51.446;-2.000;2023-03-21T02:07:08;99932.63;;;8.10;100.00
55301;BME280;58302;51.446;-2.000;2023-03-21T02:09:38;99935.34;;;8.10;100.00
55301;BME280;58302;51.446;-2.000;2023-03-21T02:12:07;99932.91;;;8.08;100.00
55301;BME280;58302;51.446;-2.000;2023-03-21T02:14:35;99919.91;;;8.10;100.00
55301;BME280;58302;51.446;-2.000;2023-03-21T02:22:30;99891.22;;;8.09;100.00
55301;BME280;58302;51.446;-2.000;2023-03-21T02:30:48;99879.31;;;8.10;100.00
55301;BME280;58302;51.446;-2.000;2023-03-21T02:38:39;99855.25;;;8.09;100.00
55301;BME280;58302;51.446;-2.000;2023-03-21T02:47:00;99828.41;;;8.07;100.00
55301;BME280;58302;51.446;-2.000;2023-03-21T02:49:32;99833.84;;;8.07;100.00
55301;BME280;58302;51.446;-2.000;2023-03-21T02:52:01;99831.41;;;8.06;100.00
55301;BME280;58302;51.446;-2.000;2023-03-21T02:54:30;99841.41;;;8.05;100.00
55301;BME280;58302;51.446;-2.000;2023-03-21T02:56:58;99831.94;;;8.03;100.00
55301;BME280;58302;51.446;-2.000;2023-03-21T02:59:26;99817.31;;;8.04;100.00
55301;BME280;58302;51.446;-2.000;2023-03-21T03:01:53;99822.44;;;8.00;100.00
55301;BME280;58302;51.446;-2.000;2023-03-21T03:04:21;99821.13;;;8.03;100.00
55301;BME280;58302;51.446;-2.000;2023-03-21T03:15:32;99795.41;;;8.05;100.00
55301;BME280;58302;51.446;-2.000;2023-03-21T03:18:04;99800.81;;;8.05;100.00
55301;BME280;58302;51.446;-2.000;2023-03-21T03:20:37;99791.38;;;8.08;100.00
55301;BME280;58302;51.446;-2.000;2023-03-21T03:23:35;99796.50;;;8.09;100.00
55301;BME280;58302;51.446;-2.000;2023-03-21T03:26:31;99797.84;;;8.12;100.00
55301;BME280;58302;51.446;-2.000;2023-03-21T03:29:07;99797.06;;;8.11;100.00
55301;BME280;58302;51.446;-2.000;2023-03-21T03:31:40;99791.63;;;8.11;100.00
55301;BME280;58302;51.446;-2.000;2023-03-21T03:34:11;99792.19;;;8.13;100.00
55301;BME280;58302;51.446;-2.000;2023-03-21T03:36:41;99797.34;;;8.15;100.00
55301;BME280;58302;51.446;-2.000;2023-03-21T03:39:10;99794.38;;;8.16;100.00
55301;BME280;58302;51.446;-2.000;2023-03-21T03:41:44;99787.34;;;8.15;100.00
55301;BME280;58302;51.446;-2.000;2023-03-21T03:44:11;99785.44;;;8.16;100.00
55301;BME280;58302;51.446;-2.000;2023-03-21T03:47:07;99792.19;;;8.18;100.00
55301;BME280;58302;51.446;-2.000;2023-03-21T03:49:43;99791.66;;;8.16;100.00
55301;BME280;58302;51.446;-2.000;2023-03-21T03:52:18;99785.16;;;8.17;100.00
55301;BME280;58302;51.446;-2.000;2023-03-21T03:54:46;99775.94;;;8.18;100.00
55301;BME280;58302;51.446;-2.000;2023-03-21T03:57:13;99773.25;;;8.18;100.00
55301;BME280;58302;51.446;-2.000;2023-03-21T03:59:41;99761.38;;;8.19;100.00
55301;BME280;58302;51.446;-2.000;2023-03-21T04:02:08;99757.28;;;8.17;100.00
55301;BME280;58302;51.446;-2.000;2023-03-21T04:04:34;99749.97;;;8.17;100.00
55301;BME280;58302;51.446;-2.000;2023-03-21T04:07:02;99739.16;;;8.17;100.00
55301;BME280;58302;51.446;-2.000;2023-03-21T04:09:29;99717.78;;;8.16;100.00
55301;BME280;58302;51.446;-2.000;2023-03-21T04:11:56;99705.06;;;8.16;100.00
55301;BME280;58302;51.446;-2.000;2023-03-21T04:14:23;99688.53;;;8.18;100.00
55301;BME280;58302;51.446;-2.000;2023-03-21T04:16:49;99684.47;;;8.15;100.00
55301;BME280;58302;51.446;-2.000;2023-03-21T04:19:17;99670.94;;;8.15;100.00
55301;BME280;58302;51.446;-2.000;2023-03-21T04:21:44;99659.84;;;8.17;100.00
55301;BME280;58302;51.446;-2.000;2023-03-21T04:24:11;99661.47;;;8.18;100.00
55301;BME280;58302;51.446;-2.000;2023-03-21T04:26:39;99653.63;;;8.16;100.00
55301;BME280;58302;51.446;-2.000;2023-03-21T04:29:05;99645.78;;;8.15;100.00
55301;BME280;58302;51.446;-2.000;2023-03-21T04:31:32;99645.50;;;8.16;100.00
55301;BME280;58302;51.446;-2.000;2023-03-21T04:34:00;99643.34;;;8.18;100.00
55301;BME280;58302;51.446;-2.000;2023-03-21T04:36:27;99643.09;;;8.20;100.00
55301;BME280;58302;51.446;-2.000;2023-03-21T04:38:59;99636.88;;;8.19;100.00
55301;BME280;58302;51.446;-2.000;2023-03-21T04:41:29;99643.34;;;8.24;100.00
55301;BME280;58302;51.446;-2.000;2023-03-21T04:43:55;99632.50;;;8.24;100.00
55301;BME280;58302;51.446;-2.000;2023-03-21T04:46:22;99632.50;;;8.24;100.00
55301;BME280;58302;51.446;-2.000;2023-03-21T04:48:48;99625.47;;;8.28;100.00
55301;BME280;58302;51.446;-2.000;2023-03-21T04:51:15;99626.56;;;8.27;100.00
55301;BME280;58302;51.446;-2.000;2023-03-21T04:53:41;99615.75;;;8.27;100.00
55301;BME280;58302;51.446;-2.000;2023-03-21T04:56:10;99622.78;;;8.28;100.00
55301;BME280;58302;51.446;-2.000;2023-03-21T04:58:37;99611.41;;;8.31;100.00
55301;BME280;58302;51.446;-2.000;2023-03-21T05:01:05;99604.38;;;8.30;100.00
55301;BME280;58302;51.446;-2.000;2023-03-21T05:03:32;99614.66;;;8.33;100.00
55301;BME280;58302;51.446;-2.000;2023-03-21T05:06:08;99616.28;;;8.34;100.00
55301;BME280;58302;51.446;-2.000;2023-03-21T05:08:34;99614.97;;;8.36;100.00
55301;BME280;58302;51.446;-2.000;2023-03-21T05:11:01;99613.88;;;8.37;100.00
55301;BME280;58302;51.446;-2.000;2023-03-21T05:13:27;99601.16;;;8.38;100.00
55301;BME280;58302;51.446;-2.000;2023-03-21T05:15:53;99590.31;;;8.38;100.00
55301;BME280;58302;51.446;-2.000;2023-03-21T05:18:20;99595.47;;;8.44;100.00
55301;BME280;58302;51.446;-2.000;2023-03-21T05:20:51;99597.34;;;8.44;100.00
55301;BME280;58302;51.446;-2.000;2023-03-21T05:23:20;99593.31;;;8.47;100.00
55301;BME280;58302;51.446;-2.000;2023-03-21T05:25:46;99604.13;;;8.47;100.00
55301;BME280;58302;51.446;-2.000;2023-03-21T05:28:13;99601.97;;;8.49;100.00
55301;BME280;58302;51.446;-2.000;2023-03-21T05:30:43;99599.25;;;8.49;100.00
55301;BME280;58302;51.446;-2.000;2023-03-21T05:33:11;99594.66;;;8.49;100.00
55301;BME280;58302;51.446;-2.000;2023-03-21T05:35:38;99587.91;;;8.47;100.00
55301;BME280;58302;51.446;-2.000;2023-03-21T05:38:04;99589.50;;;8.48;100.00
55301;BME280;58302;51.446;-2.000;2023-03-21T05:40:30;99587.91;;;8.47;100.00
55301;BME280;58302;51.446;-2.000;2023-03-21T05:42:56;99580.28;;;8.49;100.00
55301;BME280;58302;51.446;-2.000;2023-03-21T05:45:22;99579.22;;;8.50;100.00
55301;BME280;58302;51.446;-2.000;2023-03-21T05:47:48;99571.91;;;8.50;100.00
55301;BME280;58302;51.446;-2.000;2023-03-21T05:50:14;99568.09;;;8.51;100.00
55301;BME280;58302;51.446;-2.000;2023-03-21T05:52:40;99573.25;;;8.53;100.00
55301;BME280;58302;51.446;-2.000;2023-03-21T05:55:06;99577.59;;;8.54;100.00
55301;BME280;58302;51.446;-2.000;2023-03-21T05:57:33;99583.00;;;8.54;100.00
55301;BME280;58302;51.446;-2.000;2023-03-21T06:00:05;99582.72;;;8.55;100.00
55301;BME280;58302;51.446;-2.000;2023-03-21T06:02:32;99582.44;;;8.57;100.00
55301;BME280;58302;51.446;-2.000;2023-03-21T06:04:58;99585.72;;;8.59;100.00
55301;BME280;58302;51.446;-2.000;2023-03-21T06:07:24;99569.75;;;8.52;100.00
55301;BME280;58302;51.446;-2.000;2023-03-21T06:09:50;99568.66;;;8.43;100.00
55301;BME280;58302;51.446;-2.000;2023-03-21T06:12:16;99571.88;;;8.35;100.00
55301;BME280;58302;51.446;-2.000;2023-03-21T06:14:42;99561.59;;;8.27;100.00
55301;BME280;58302;51.446;-2.000;2023-03-21T06:17:08;99546.72;;;8.24;100.00
55301;BME280;58302;51.446;-2.000;2023-03-21T06:19:34;99549.16;;;8.26;100.00
55301;BME280;58302;51.446;-2.000;2023-03-21T06:22:00;99546.75;;;8.19;100.00
55301;BME280;58302;51.446;-2.000;2023-03-21T06:24:26;99550.78;;;8.16;100.00
55301;BME280;58302;51.446;-2.000;2023-03-21T06:26:52;99545.66;;;8.15;100.00
55301;BME280;58302;51.446;-2.000;2023-03-21T06:29:18;99558.38;;;8.14;100.00
55301;BME280;58302;51.446;-2.000;2023-03-21T06:31:44;99554.28;;;8.12;100.00
55301;BME280;58302;51.446;-2.000;2023-03-21T06:34:10;99564.31;;;8.11;100.00
55301;BME280;58302;51.446;-2.000;2023-03-21T06:36:36;99554.84;;;8.14;100.00
55301;BME280;58302;51.446;-2.000;2023-03-21T06:39:03;99557.00;;;8.12;100.00
55301;BME280;58302;51.446;-2.000;2023-03-21T06:41:30;99566.75;;;8.13;100.00
55301;BME280;58302;51.446;-2.000;2023-03-21T06:43:56;99569.47;;;8.08;100.00
55301;BME280;58302;51.446;-2.000;2023-03-21T06:46:22;99573.53;;;8.15;100.00
55301;BME280;58302;51.446;-2.000;2023-03-21T06:48:48;99588.41;;;8.23;100.00
55301;BME280;58302;51.446;-2.000;2023-03-21T06:51:14;99585.16;;;8.26;100.00
55301;BME280;58302;51.446;-2.000;2023-03-21T06:53:40;99582.44;;;8.31;100.00
55301;BME280;58302;51.446;-2.000;2023-03-21T06:56:08;99582.16;;;8.33;100.00
55301;BME280;58302;51.446;-2.000;2023-03-21T06:58:34;99582.47;;;8.36;100.00
55301;BME280;58302;51.446;-2.000;2023-03-21T07:01:01;99574.34;;;8.41;100.00
55301;BME280;58302;51.446;-2.000;2023-03-21T07:03:28;99578.94;;;8.51;100.00
55301;BME280;58302;51.446;-2.000;2023-03-21T07:05:54;99579.47;;;8.58;100.00
55301;BME280;58302;51.446;-2.000;2023-03-21T07:08:20;99567.78;;;8.68;100.00
55301;BME280;58302;51.446;-2.000;2023-03-21T07:10:46;99566.16;;;8.77;100.00
55301;BME280;58302;51.446;-2.000;2023-03-21T07:13:13;99562.09;;;8.85;100.00
55301;BME280;58302;51.446;-2.000;2023-03-21T07:15:40;99559.88;;;8.92;100.00
55301;BME280;58302;51.446;-2.000;2023-03-21T07:18:07;99542.53;;;8.98;100.00
55301;BME280;58302;51.446;-2.000;2023-03-21T07:20:35;99535.44;;;9.07;100.00
55301;BME280;58302;51.446;-2.000;2023-03-21T07:23:02;99530.22;;;9.21;100.00
55301;BME280;58302;51.446;-2.000;2023-03-21T07:25:29;99539.16;;;9.71;100.00
55301;BME280;58302;51.446;-2.000;2023-03-21T07:27:55;99533.94;;;10.14;100.00
55301;BME280;58302;51.446;-2.000;2023-03-21T07:30:21;99541.31;;;10.08;100.00
55301;BME280;58302;51.446;-2.000;2023-03-21T07:32:47;99536.03;;;9.88;100.00
55301;BME280;58302;51.446;-2.000;2023-03-21T07:35:15;99548.94;;;9.67;100.00
55301;BME280;58302;51.446;-2.000;2023-03-21T07:37:42;99539.53;;;9.54;100.00
55301;BME280;58302;51.446;-2.000;2023-03-21T07:40:09;99553.91;;;9.55;100.00
55301;BME280;58302;51.446;-2.000;2023-03-21T07:42:36;99558.28;;;9.50;100.00
55301;BME280;58302;51.446;-2.000;2023-03-21T07:45:03;99559.09;;;9.51;100.00
55301;BME280;58302;51.446;-2.000;2023-03-21T07:47:30;99565.31;;;9.52;100.00
55301;BME280;58302;51.446;-2.000;2023-03-21T07:49:56;99568.28;;;9.50;100.00
55301;BME280;58302;51.446;-2.000;2023-03-21T07:52:22;99569.34;;;9.59;100.00
55301;BME280;58302;51.446;-2.000;2023-03-21T07:54:48;99569.03;;;9.61;100.00
55301;BME280;58302;51.446;-2.000;2023-03-21T07:57:14;99572.03;;;9.64;100.00
55301;BME280;58302;51.446;-2.000;2023-03-21T07:59:41;99572.31;;;9.63;100.00
55301;BME280;58302;51.446;-2.000;2023-03-21T08:02:12;99575.81;;;9.68;100.00
55301;BME280;58302;51.446;-2.000;2023-03-21T08:04:38;99568.97;;;9.76;100.00
55301;BME280;58302;51.446;-2.000;2023-03-21T08:07:04;99574.63;;;9.85;100.00
55301;BME280;58302;51.446;-2.000;2023-03-21T08:09:30;99565.88;;;9.88;100.00
55301;BME280;58302;51.446;-2.000;2023-03-21T08:11:57;99567.72;;;9.97;100.00
55301;BME280;58302;51.446;-2.000;2023-03-21T08:14:22;99578.78;;;10.11;100.00
55301;BME280;58302;51.446;-2.000;2023-03-21T08:16:48;99572.97;;;10.28;100.00
55301;BME280;58302;51.446;-2.000;2023-03-21T08:19:14;99561.94;;;10.43;100.00
55301;BME280;58302;51.446;-2.000;2023-03-21T08:21:43;99569.19;;;10.53;100.00
55301;BME280;58302;51.446;-2.000;2023-03-21T08:24:09;99571.25;;;10.66;100.00
55301;BME280;58302;51.446;-2.000;2023-03-21T08:26:35;99570.16;;;10.91;100.00
55301;BME280;58302;51.446;-2.000;2023-03-21T08:29:01;99578.25;;;10.96;100.00
55301;BME280;58302;51.446;-2.000;2023-03-21T08:31:27;99581.09;;;11.10;100.00
55301;BME280;58302;51.446;-2.000;2023-03-21T08:33:53;99587.06;;;11.31;100.00
55301;BME280;58302;51.446;-2.000;2023-03-21T08:36:23;99587.28;;;11.77;100.00
55301;BME280;58302;51.446;-2.000;2023-03-21T08:38:50;99593.69;;;11.86;100.00
55301;BME280;58302;51.446;-2.000;2023-03-21T08:41:21;99614.16;;;11.84;100.00
55301;BME280;58302;51.446;-2.000;2023-03-21T08:43:49;99619.09;;;12.01;100.00
55301;BME280;58302;51.446;-2.000;2023-03-21T08:46:15;99637.81;;;12.40;100.00
55301;BME280;58302;51.446;-2.000;2023-03-21T08:48:41;99652.06;;;12.37;100.00
55301;BME280;58302;51.446;-2.000;2023-03-21T08:51:07;99643.66;;;12.33;100.00
55301;BME280;58302;51.446;-2.000;2023-03-21T08:53:33;99654.28;;;12.16;100.00
55301;BME280;58302;51.446;-2.000;2023-03-21T08:55:59;99665.63;;;12.04;100.00
55301;BME280;58302;51.446;-2.000;2023-03-21T08:58:25;99667.31;;;12.00;100.00
55301;BME280;58302;51.446;-2.000;2023-03-21T09:00:51;99678.09;;;11.86;100.00
55301;BME280;58302;51.446;-2.000;2023-03-21T09:03:17;99678.28;;;11.71;100.00
55301;BME280;58302;51.446;-2.000;2023-03-21T09:05:44;99679.47;;;11.65;100.00
55301;BME280;58302;51.446;-2.000;2023-03-21T09:08:11;99672.72;;;11.57;100.00
55301;BME280;58302;51.446;-2.000;2023-03-21T09:10:38;99681.34;;;11.65;100.00
55301;BME280;58302;51.446;-2.000;2023-03-21T09:13:04;99678.19;;;12.00;100.00
55301;BME280;58302;51.446;-2.000;2023-03-21T09:15:30;99669.25;;;12.84;100.00
55301;BME280;58302;51.446;-2.000;2023-03-21T09:17:57;99697.00;;;13.05;100.00
55301;BME280;58302;51.446;-2.000;2023-03-21T09:20:38;99709.31;;;13.02;100.00
55301;BME280;58302;51.446;-2.000;2023-03-21T09:23:05;99715.19;;;13.09;100.00
55301;BME280;58302;51.446;-2.000;2023-03-21T09:25:31;99709.28;;;12.88;100.00
55301;BME280;58302;51.446;-2.000;2023-03-21T09:27:58;99707.19;;;12.99;100.00
55301;BME280;58302;51.446;-2.000;2023-03-21T09:30:24;99711.53;;;13.00;100.00
55301;BME280;58302;51.446;-2.000;2023-03-21T09:32:50;99709.09;;;12.99;100.00
55301;BME280;58302;51.446;-2.000;2023-03-21T09:35:19;99718.09;;;12.99;100.00
55301;BME280;58302;51.446;-2.000;2023-03-21T09:37:46;99712.25;;;12.73;100.00
55301;BME280;58302;51.446;-2.000;2023-03-21T09:45:47;99727.16;;;12.24;100.00
55301;BME280;58302;51.446;-2.000;2023-03-21T09:48:32;99738.78;;;12.11;100.00
55301;BME280;58302;51.446;-2.000;2023-03-21T09:51:01;99744.44;;;11.96;100.00
55301;BME280;58302;51.446;-2.000;2023-03-21T09:53:34;99733.97;;;12.03;100.00
55301;BME280;58302;51.446;-2.000;2023-03-21T09:56:02;99728.34;;;12.18;100.00
55301;BME280;58302;51.446;-2.000;2023-03-21T09:58:47;99728.47;;;12.08;100.00
55301;BME280;58302;51.446;-2.000;2023-03-21T10:01:20;99718.53;;;12.17;100.00
55301;BME280;58302;51.446;-2.000;2023-03-21T10:04:03;99733.41;;;12.25;100.00
55301;BME280;58302;51.446;-2.000;2023-03-21T10:06:31;99737.84;;;12.39;100.00
55301;BME280;58302;51.446;-2.000;2023-03-21T10:09:05;99727.09;;;13.00;100.00
55301;BME280;58302;51.446;-2.000;2023-03-21T10:11:47;99729.38;;;14.21;100.00
55301;BME280;58302;51.446;-2.000;2023-03-21T10:17:36;99736.59;;;15.83;100.00
55301;BME280;58302;51.446;-2.000;2023-03-21T10:20:17;99740.41;;;16.22;100.00
55301;BME280;58302;51.446;-2.000;2023-03-21T10:22:48;99732.78;;;15.62;100.00
55301;BME280;58302;51.446;-2.000;2023-03-21T10:25:17;99738.81;;;15.81;100.00
55301;BME280;58302;51.446;-2.000;2023-03-21T10:27:44;99719.06;;;16.01;100.00
55301;BME280;58302;51.446;-2.000;2023-03-21T10:30:20;99722.75;;;15.88;100.00
55301;BME280;58302;51.446;-2.000;2023-03-21T10:32:49;99723.38;;;15.45;100.00
55301;BME280;58302;51.446;-2.000;2023-03-21T10:35:16;99711.41;;;15.41;100.00
55301;BME280;58302;51.446;-2.000;2023-03-21T10:37:42;99711.94;;;15.52;100.00
55301;BME280;58302;51.446;-2.000;2023-03-21T10:40:14;99701.22;;;15.64;100.00
55301;BME280;58302;51.446;-2.000;2023-03-21T10:42:41;99710.69;;;16.06;100.00
55301;BME280;58302;51.446;-2.000;2023-03-21T10:45:16;99724.72;;;16.05;100.00
55301;BME280;58302;51.446;-2.000;2023-03-21T10:47:46;99720.59;;;15.68;100.00
55301;BME280;58302;51.446;-2.000;2023-03-21T10:50:14;99718.75;;;15.23;100.00
55301;BME280;58302;51.446;-2.000;2023-03-21T10:52:49;99719.00;;;15.13;100.00
55301;BME280;58302;51.446;-2.000;2023-03-21T10:55:28;99718.34;;;15.08;100.00
55301;BME280;58302;51.446;-2.000;2023-03-21T10:57:59;99721.09;;;14.85;100.00
55301;BME280;58302;51.446;-2.000;2023-03-21T11:00:34;99714.94;;;14.43;100.00
55301;BME280;58302;51.446;-2.000;2023-03-21T11:03:02;99719.81;;;14.46;100.00
55301;BME280;58302;51.446;-2.000;2023-03-21T11:05:37;99716.84;;;15.01;100.00
55301;BME280;58302;51.446;-2.000;2023-03-21T11:08:12;99722.63;;;15.62;100.00
55301;BME280;58302;51.446;-2.000;2023-03-21T11:10:53;99724.97;;;15.46;100.00
55301;BME280;58302;51.446;-2.000;2023-03-21T11:13:25;99729.41;;;15.02;100.00
55301;BME280;58302;51.446;-2.000;2023-03-21T11:15:56;99733.88;;;14.76;100.00
55301;BME280;58302;51.446;-2.000;2023-03-21T11:18:25;99726.13;;;14.92;100.00
55301;BME280;58302;51.446;-2.000;2023-03-21T11:20:55;99721.31;;;15.60;100.00
55301;BME280;58302;51.446;-2.000;2023-03-21T11:23:26;99732.59;;;15.89;100.00
55301;BME280;58302;51.446;-2.000;2023-03-21T11:25:54;99731.53;;;15.68;100.00
55301;BME280;58302;51.446;-2.000;2023-03-21T11:28:23;99734.91;;;15.34;100.00
55301;BME280;58302;51.446;-2.000;2023-03-21T11:30:57;99732.03;;;15.08;100.00
55301;BME280;58302;51.446;-2.000;2023-03-21T11:33:31;99722.16;;;14.75;100.00
55301;BME280;58302;51.446;-2.000;2023-03-21T11:38:48;99714.81;;;15.78;100.00
55301;BME280;58302;51.446;-2.000;2023-03-21T11:41:23;99708.41;;;15.60;100.00
55301;BME280;58302;51.446;-2.000;2023-03-21T11:43:53;99707.28;;;15.21;100.00
55301;BME280;58302;51.446;-2.000;2023-03-21T11:46:27;99707.06;;;15.09;100.00
55301;BME280;58302;51.446;-2.000;2023-03-21T11:48:54;99705.59;;;15.03;100.00
55301;BME280;58302;51.446;-2.000;2023-03-21T11:54:15;99703.19;;;14.57;100.00
55301;BME280;58302;51.446;-2.000;2023-03-21T11:56:46;99701.81;;;14.32;100.00
55301;BME280;58302;51.446;-2.000;2023-03-21T11:59:38;99683.38;;;14.37;100.00
55301;BME280;58302;51.446;-2.000;2023-03-21T12:05:13;99688.28;;;15.16;100.00
55301;BME280;58302;51.446;-2.000;2023-03-21T12:10:53;99699.44;;;14.97;100.00
55301;BME280;58302;51.446;-2.000;2023-03-21T12:18:36;99714.38;;;16.02;100.00
55301;BME280;58302;51.446;-2.000;2023-03-21T12:21:23;99734.06;;;16.13;100.00
55301;BME280;58302;51.446;-2.000;2023-03-21T12:24:11;99719.13;;;15.70;100.00
55301;BME280;58302;51.446;-2.000;2023-03-21T12:32:24;99710.22;;;14.35;100.00
55301;BME280;58302;51.446;-2.000;2023-03-21T12:38:19;99705.38;;;15.62;100.00
55301;BME280;58302;51.446;-2.000;2023-03-21T12:46:36;99701.94;;;15.87;100.00
55301;BME280;58302;51.446;-2.000;2023-03-21T12:49:09;99711.84;;;16.31;100.00
55301;BME280;58302;51.446;-2.000;2023-03-21T12:51:47;99706.06;;;16.76;100.00
55301;BME280;58302;51.446;-2.000;2023-03-21T12:54:21;99721.06;;;16.62;100.00
55301;BME280;58302;51.446;-2.000;2023-03-21T12:57:00;99720.81;;;15.97;100.00
55301;BME280;58302;51.446;-2.000;2023-03-21T13:01:59;99729.25;;;15.30;100.00
55301;BME280;58302;51.446;-2.000;2023-03-21T13:04:35;99715.75;;;15.34;100.00
55301;BME280;58302;51.446;-2.000;2023-03-21T13:07:04;99716.94;;;15.50;100.00
55301;BME280;58302;51.446;-2.000;2023-03-21T13:09:37;99716.91;;;15.81;100.00
55301;BME280;58302;51.446;-2.000;2023-03-21T13:12:23;99719.06;;;16.01;100.00
55301;BME280;58302;51.446;-2.000;2023-03-21T13:14:58;99716.19;;;16.24;100.00
55301;BME280;58302;51.446;-2.000;2023-03-21T13:17:40;99724.09;;;16.69;100.00
55301;BME280;58302;51.446;-2.000;2023-03-21T13:20:18;99725.50;;;17.18;100.00
55301;BME280;58302;51.446;-2.000;2023-03-21T13:22:47;99749.03;;;17.92;100.00
55301;BME280;58302;51.446;-2.000;2023-03-21T13:25:23;99790.72;;;18.03;100.00
55301;BME280;58302;51.446;-2.000;2023-03-21T13:27:54;99816.25;;;18.03;100.00
55301;BME280;58302;51.446;-2.000;2023-03-21T13:30:27;99827.50;;;17.81;100.00
55301;BME280;58302;51.446;-2.000;2023-03-21T13:33:22;99829.38;;;17.25;100.00
55301;BME280;58302;51.446;-2.000;2023-03-21T13:35:58;99822.69;;;16.48;100.00
55301;BME280;58302;51.446;-2.000;2023-03-21T13:38:31;99822.88;;;16.03;100.00
55301;BME280;58302;51.446;-2.000;2023-03-21T13:41:10;99791.66;;;16.13;100.00
55301;BME280;58302;51.446;-2.000;2023-03-21T13:43:39;99819.00;;;16.61;100.00
55301;BME280;58302;51.446;-2.000;2023-03-21T13:46:15;99811.47;;;16.75;100.00
55301;BME280;58302;51.446;-2.000;2023-03-21T13:49:46;99822.59;;;17.13;100.00
55301;BME280;58302;51.446;-2.000;2023-03-21T13:51:55;99813.91;;;16.94;100.00
55301;BME280;58302;51.446;-2.000;2023-03-21T13:54:53;99820.13;;;16.69;100.00
55301;BME280;58302;51.446;-2.000;2023-03-21T13:57:37;99805.56;;;15.85;100.00
55301;BME280;58302;51.446;-2.000;2023-03-21T14:00:18;99810.00;;;15.64;100.00
55301;BME280;58302;51.446;-2.000;2023-03-21T14:02:54;99810.31;;;15.93;100.00
55301;BME280;58302;51.446;-2.000;2023-03-21T14:05:23;99810.84;;;17.04;100.00
55301;BME280;58302;51.446;-2.000;2023-03-21T14:07:55;99825.44;;;17.52;100.00
55301;BME280;58302;51.446;-2.000;2023-03-21T14:10:27;99829.72;;;17.06;100.00
55301;BME280;58302;51.446;-2.000;2023-03-21T14:12:55;99825.16;;;16.67;100.00
55301;BME280;58302;51.446;-2.000;2023-03-21T14:15:25;99824.63;;;16.47;100.00
55301;BME280;58302;51.446;-2.000;2023-03-21T14:17:58;99810.09;;;16.38;100.00
55301;BME280;58302;51.446;-2.000;2023-03-21T14:20:31;99810.09;;;16.38;100.00